sensor_id;sensor_type;location;lat;lon;timestamp;temperature;humidity
5130;DHT22;2583;50.946;6.954;2023-08-06T00:01:28;16.70;99.90
5130;DHT22;2583;50.946;6.954;2023-08-06T00:03:55;16.70;99.90
5130;DHT22;2583;50.946;6.954;2023-08-06T00:06:22;16.70;99.90
5130;DHT22;2583;50.946;6.954;2023-08-06T00:08:48;16.60;99.90
5130;DHT22;2583;50.946;6.954;2023-08-06T00:11:15;16.60;99.90
5130;DHT22;2583;50.946;6.954;2023-08-06T00:13:42;16.50;99.90
5130;DHT22;2583;50.946;6.954;2023-08-06T00:16:10;16.50;99.90
5130;DHT22;2583;50.946;6.954;2023-08-06T00:18:37;16.40;99.90
5130;DHT22;2583;50.946;6.954;2023-08-06T00:21:04;16.40;99.90
5130;DHT22;2583;50.946;6.954;2023-08-06T00:23:31;16.40;99.90
5130;DHT22;2583;50.946;6.954;2023-08-06T00:25:58;16.40;99.90
5130;DHT22;2583;50.946;6.954;2023-08-06T00:28:25;16.30;99.90
5130;DHT22;2583;50.946;6.954;2023-08-06T00:30:55;16.30;99.90
5130;DHT22;2583;50.946;6.954;2023-08-06T00:33:23;16.30;99.90
5130;DHT22;2583;50.946;6.954;2023-08-06T00:35:50;16.30;99.90
5130;DHT22;2583;50.946;6.954;2023-08-06T00:38:17;16.30;99.90
5130;DHT22;2583;50.946;6.954;2023-08-06T00:40:43;16.20;99.90
5130;DHT22;2583;50.946;6.954;2023-08-06T00:43:10;16.30;99.90
5130;DHT22;2583;50.946;6.954;2023-08-06T00:45:37;16.20;99.90
5130;DHT22;2583;50.946;6.954;2023-08-06T00:48:05;16.20;99.90
5130;DHT22;2583;50.946;6.954;2023-08-06T00:50:33;16.10;99.90
5130;DHT22;2583;50.946;6.954;2023-08-06T00:52:59;16.20;99.90
5130;DHT22;2583;50.946;6.954;2023-08-06T00:55:27;16.20;99.90
5130;DHT22;2583;50.946;6.954;2023-08-06T00:57:54;16.10;99.90
5130;DHT22;2583;50.946;6.954;2023-08-06T01:00:24;16.10;99.90
5130;DHT22;2583;50.946;6.954;2023-08-06T01:02:51;16.00;99.90
5130;DHT22;2583;50.946;6.954;2023-08-06T01:05:21;16.10;99.90
5130;DHT22;2583;50.946;6.954;2023-08-06T01:08:12;16.10;99.90
5130;DHT22;2583;50.946;6.954;2023-08-06T01:13:47;16.20;99.90
5130;DHT22;2583;50.946;6.954;2023-08-06T01:16:18;16.20;99.90
5130;DHT22;2583;50.946;6.954;2023-08-06T01:18:47;16.20;99.90
5130;DHT22;2583;50.946;6.954;2023-08-06T01:21:16;16.30;99.90
5130;DHT22;2583;50.946;6.954;2023-08-06T01:23:44;16.30;99.90
5130;DHT22;2583;50.946;6.954;2023-08-06T01:26:17;16.30;99.90
5130;DHT22;2583;50.946;6.954;2023-08-06T01:28:59;16.30;99.90
5130;DHT22;2583;50.946;6.954;2023-08-06T01:31:37;16.30;99.90
5130;DHT22;2583;50.946;6.954;2023-08-06T01:34:07;16.30;99.90
5130;DHT22;2583;50.946;6.954;2023-08-06T01:36:35;16.30;99.90
5130;DHT22;2583;50.946;6.954;2023-08-06T01:39:04;16.30;99.90
5130;DHT22;2583;50.946;6.954;2023-08-06T01:41:31;16.30;99.90
5130;DHT22;2583;50.946;6.954;2023-08-06T01:43:58;16.40;99.90
5130;DHT22;2583;50.946;6.954;2023-08-06T01:46:25;16.30;99.90
5130;DHT22;2583;50.946;6.954;2023-08-06T01:48:51;16.30;99.90
5130;DHT22;2583;50.946;6.954;2023-08-06T01:51:18;16.30;99.90
5130;DHT22;2583;50.946;6.954;2023-08-06T01:53:45;16.30;99.90
5130;DHT22;2583;50.946;6.954;2023-08-06T01:56:12;16.30;99.90
5130;DHT22;2583;50.946;6.954;2023-08-06T01:58:38;16.30;99.90
5130;DHT22;2583;50.946;6.954;2023-08-06T02:01:05;16.30;99.90
5130;DHT22;2583;50.946;6.954;2023-08-06T02:03:32;16.30;99.90
5130;DHT22;2583;50.946;6.954;2023-08-06T02:05:59;16.40;99.90
5130;DHT22;2583;50.946;6.954;2023-08-06T02:08:27;16.30;99.90
5130;DHT22;2583;50.946;6.954;2023-08-06T02:10:54;16.30;99.90
5130;DHT22;2583;50.946;6.954;2023-08-06T02:13:20;16.30;99.90
5130;DHT22;2583;50.946;6.954;2023-08-06T02:15:47;16.30;99.90
5130;DHT22;2583;50.946;6.954;2023-08-06T02:18:14;16.20;99.90
5130;DHT22;2583;50.946;6.954;2023-08-06T02:20:42;16.20;99.90
5130;DHT22;2583;50.946;6.954;2023-08-06T02:23:09;16.20;99.90
5130;DHT22;2583;50.946;6.954;2023-08-06T02:25:36;16.10;99.90
5130;DHT22;2583;50.946;6.954;2023-08-06T02:28:03;16.20;99.90
5130;DHT22;2583;50.946;6.954;2023-08-06T02:30:29;16.10;99.90
5130;DHT22;2583;50.946;6.954;2023-08-06T02:32:57;16.20;99.90
5130;DHT22;2583;50.946;6.954;2023-08-06T02:35:24;16.10;99.90
5130;DHT22;2583;50.946;6.954;2023-08-06T02:37:50;16.20;99.90
5130;DHT22;2583;50.946;6.954;2023-08-06T02:40:17;16.20;99.90
5130;DHT22;2583;50.946;6.954;2023-08-06T02:42:44;16.20;99.90
5130;DHT22;2583;50.946;6.954;2023-08-06T02:45:10;16.20;99.90
5130;DHT22;2583;50.946;6.954;2023-08-06T02:47:37;16.20;99.90
5130;DHT22;2583;50.946;6.954;2023-08-06T02:50:04;16.20;99.90
5130;DHT22;2583;50.946;6.954;2023-08-06T02:52:31;16.20;99.90
5130;DHT22;2583;50.946;6.954;2023-08-06T02:54:58;16.20;99.90
5130;DHT22;2583;50.946;6.954;2023-08-06T02:57:26;16.20;99.90
5130;DHT22;2583;50.946;6.954;2023-08-06T02:59:53;16.20;99.90
5130;DHT22;2583;50.946;6.954;2023-08-06T03:02:20;16.20;99.90
5130;DHT22;2583;50.946;6.954;2023-08-06T03:04:47;16.20;99.90
5130;DHT22;2583;50.946;6.954;2023-08-06T03:07:14;16.20;99.90
5130;DHT22;2583;50.946;6.954;2023-08-06T03:09:40;16.30;99.90
5130;DHT22;2583;50.946;6.954;2023-08-06T03:12:07;16.20;99.90
5130;DHT22;2583;50.946;6.954;2023-08-06T03:14:34;16.20;99.90
5130;DHT22;2583;50.946;6.954;2023-08-06T03:17:01;16.20;99.90
5130;DHT22;2583;50.946;6.954;2023-08-06T03:19:27;16.20;99.90
5130;DHT22;2583;50.946;6.954;2023-08-06T03:21:54;16.20;99.90
5130;DHT22;2583;50.946;6.954;2023-08-06T03:24:21;16.20;99.90
5130;DHT22;2583;50.946;6.954;2023-08-06T03:26:48;16.10;99.90
5130;DHT22;2583;50.946;6.954;2023-08-06T03:29:14;16.20;99.90
5130;DHT22;2583;50.946;6.954;2023-08-06T03:31:41;16.20;99.90
5130;DHT22;2583;50.946;6.954;2023-08-06T03:34:08;16.10;99.90
5130;DHT22;2583;50.946;6.954;2023-08-06T03:36:35;16.10;99.90
5130;DHT22;2583;50.946;6.954;2023-08-06T03:39:01;16.10;99.90
5130;DHT22;2583;50.946;6.954;2023-08-06T03:41:28;16.00;99.90
5130;DHT22;2583;50.946;6.954;2023-08-06T03:43:55;16.00;99.90
5130;DHT22;2583;50.946;6.954;2023-08-06T03:46:22;16.00;99.90
5130;DHT22;2583;50.946;6.954;2023-08-06T03:48:49;16.00;99.90
5130;DHT22;2583;50.946;6.954;2023-08-06T03:51:15;15.90;99.90
5130;DHT22;2583;50.946;6.954;2023-08-06T03:53:42;16.00;99.90
5130;DHT22;2583;50.946;6.954;2023-08-06T03:56:09;15.90;99.90
5130;DHT22;2583;50.946;6.954;2023-08-06T03:58:35;16.00;99.90
5130;DHT22;2583;50.946;6.954;2023-08-06T04:01:03;15.90;99.90
5130;DHT22;2583;50.946;6.954;2023-08-06T04:03:30;15.80;99.90
5130;DHT22;2583;50.946;6.954;2023-08-06T04:05:57;15.80;99.90
5130;DHT22;2583;50.946;6.954;2023-08-06T04:08:24;15.80;99.90
5130;DHT22;2583;50.946;6.954;2023-08-06T04:10:54;15.80;99.90
5130;DHT22;2583;50.946;6.954;2023-08-06T04:13:21;15.70;99.90
5130;DHT22;2583;50.946;6.954;2023-08-06T04:15:48;15.80;99.90
5130;DHT22;2583;50.946;6.954;2023-08-06T04:18:14;15.70;99.90
5130;DHT22;2583;50.946;6.954;2023-08-06T04:20:47;15.70;99.90
5130;DHT22;2583;50.946;6.954;2023-08-06T04:23:16;15.70;99.90
5130;DHT22;2583;50.946;6.954;2023-08-06T04:25:42;15.70;99.90
5130;DHT22;2583;50.946;6.954;2023-08-06T04:28:09;15.80;99.90
5130;DHT22;2583;50.946;6.954;2023-08-06T04:30:37;15.70;99.90
5130;DHT22;2583;50.946;6.954;2023-08-06T04:33:04;15.70;99.90
5130;DHT22;2583;50.946;6.954;2023-08-06T04:35:31;15.70;99.90
5130;DHT22;2583;50.946;6.954;2023-08-06T04:37:57;15.70;99.90
5130;DHT22;2583;50.946;6.954;2023-08-06T04:40:24;15.80;99.90
5130;DHT22;2583;50.946;6.954;2023-08-06T04:42:51;15.80;99.90
5130;DHT22;2583;50.946;6.954;2023-08-06T04:45:18;15.70;99.90
5130;DHT22;2583;50.946;6.954;2023-08-06T04:47:44;15.90;99.90
5130;DHT22;2583;50.946;6.954;2023-08-06T04:50:11;15.80;99.90
5130;DHT22;2583;50.946;6.954;2023-08-06T04:52:38;15.80;99.90
5130;DHT22;2583;50.946;6.954;2023-08-06T04:55:05;15.90;99.90
5130;DHT22;2583;50.946;6.954;2023-08-06T04:57:33;15.90;99.90
5130;DHT22;2583;50.946;6.954;2023-08-06T04:59:59;15.90;99.90
5130;DHT22;2583;50.946;6.954;2023-08-06T05:02:26;15.90;99.90
5130;DHT22;2583;50.946;6.954;2023-08-06T05:04:53;16.00;99.90
5130;DHT22;2583;50.946;6.954;2023-08-06T05:07:20;15.90;99.90
5130;DHT22;2583;50.946;6.954;2023-08-06T05:09:47;15.90;99.90
5130;DHT22;2583;50.946;6.954;2023-08-06T05:12:13;15.90;99.90
5130;DHT22;2583;50.946;6.954;2023-08-06T05:14:40;16.00;99.90
5130;DHT22;2583;50.946;6.954;2023-08-06T05:17:08;16.00;99.90
5130;DHT22;2583;50.946;6.954;2023-08-06T05:19:35;16.00;99.90
5130;DHT22;2583;50.946;6.954;2023-08-06T05:22:01;16.10;99.90
5130;DHT22;2583;50.946;6.954;2023-08-06T05:24:28;16.10;99.90
5130;DHT22;2583;50.946;6.954;2023-08-06T05:26:55;16.20;99.90
5130;DHT22;2583;50.946;6.954;2023-08-06T05:29:22;16.20;99.90
5130;DHT22;2583;50.946;6.954;2023-08-06T05:31:49;16.30;99.90
5130;DHT22;2583;50.946;6.954;2023-08-06T05:34:16;16.30;99.90
5130;DHT22;2583;50.946;6.954;2023-08-06T05:36:42;16.30;99.90
5130;DHT22;2583;50.946;6.954;2023-08-06T05:39:09;16.30;99.90
5130;DHT22;2583;50.946;6.954;2023-08-06T05:41:36;16.30;99.90
5130;DHT22;2583;50.946;6.954;2023-08-06T05:44:03;16.30;99.90
5130;DHT22;2583;50.946;6.954;2023-08-06T05:46:30;16.20;99.90
5130;DHT22;2583;50.946;6.954;2023-08-06T05:48:57;16.20;99.90
5130;DHT22;2583;50.946;6.954;2023-08-06T05:51:23;16.20;99.90
5130;DHT22;2583;50.946;6.954;2023-08-06T05:53:50;16.30;99.90
5130;DHT22;2583;50.946;6.954;2023-08-06T05:56:17;16.30;99.90
5130;DHT22;2583;50.946;6.954;2023-08-06T05:58:43;16.30;99.90
5130;DHT22;2583;50.946;6.954;2023-08-06T06:01:10;16.40;99.90
5130;DHT22;2583;50.946;6.954;2023-08-06T06:03:37;16.50;99.90
5130;DHT22;2583;50.946;6.954;2023-08-06T06:06:04;16.40;99.90
5130;DHT22;2583;50.946;6.954;2023-08-06T06:08:30;16.50;99.90
5130;DHT22;2583;50.946;6.954;2023-08-06T06:10:58;16.50;99.90
5130;DHT22;2583;50.946;6.954;2023-08-06T06:13:24;16.60;99.90
5130;DHT22;2583;50.946;6.954;2023-08-06T06:15:54;16.70;99.90
5130;DHT22;2583;50.946;6.954;2023-08-06T06:18:22;16.70;99.90
5130;DHT22;2583;50.946;6.954;2023-08-06T06:20:49;16.60;99.90
5130;DHT22;2583;50.946;6.954;2023-08-06T06:23:16;16.60;99.90
5130;DHT22;2583;50.946;6.954;2023-08-06T06:25:43;16.70;99.90
5130;DHT22;2583;50.946;6.954;2023-08-06T06:28:11;16.70;99.90
5130;DHT22;2583;50.946;6.954;2023-08-06T06:30:37;16.80;99.90
5130;DHT22;2583;50.946;6.954;2023-08-06T06:33:04;16.80;99.90
5130;DHT22;2583;50.946;6.954;2023-08-06T06:35:31;16.80;99.90
5130;DHT22;2583;50.946;6.954;2023-08-06T06:38:00;16.80;99.90
5130;DHT22;2583;50.946;6.954;2023-08-06T06:40:27;16.80;99.90
5130;DHT22;2583;50.946;6.954;2023-08-06T06:42:54;16.70;99.90
5130;DHT22;2583;50.946;6.954;2023-08-06T06:45:20;16.70;99.90
5130;DHT22;2583;50.946;6.954;2023-08-06T06:47:47;16.60;99.90
5130;DHT22;2583;50.946;6.954;2023-08-06T06:50:14;16.60;99.90
5130;DHT22;2583;50.946;6.954;2023-08-06T06:52:41;16.60;99.90
5130;DHT22;2583;50.946;6.954;2023-08-06T06:55:08;16.50;99.90
5130;DHT22;2583;50.946;6.954;2023-08-06T06:57:35;16.50;99.90
5130;DHT22;2583;50.946;6.954;2023-08-06T07:00:01;16.60;99.90
5130;DHT22;2583;50.946;6.954;2023-08-06T07:02:32;16.60;99.90
5130;DHT22;2583;50.946;6.954;2023-08-06T07:04:59;16.70;99.90
5130;DHT22;2583;50.946;6.954;2023-08-06T07:07:26;16.70;99.90
5130;DHT22;2583;50.946;6.954;2023-08-06T07:09:52;16.70;99.90
5130;DHT22;2583;50.946;6.954;2023-08-06T07:12:19;16.70;99.90
5130;DHT22;2583;50.946;6.954;2023-08-06T07:14:48;16.60;99.90
5130;DHT22;2583;50.946;6.954;2023-08-06T07:17:14;16.70;99.90
5130;DHT22;2583;50.946;6.954;2023-08-06T07:19:41;16.70;99.90
5130;DHT22;2583;50.946;6.954;2023-08-06T07:22:08;16.70;99.90
5130;DHT22;2583;50.946;6.954;2023-08-06T07:24:34;16.70;99.90
5130;DHT22;2583;50.946;6.954;2023-08-06T07:27:01;16.70;99.90
5130;DHT22;2583;50.946;6.954;2023-08-06T07:29:28;16.70;99.90
5130;DHT22;2583;50.946;6.954;2023-08-06T07:31:55;16.70;99.90
5130;DHT22;2583;50.946;6.954;2023-08-06T07:34:22;16.60;99.90
5130;DHT22;2583;50.946;6.954;2023-08-06T07:36:49;16.50;99.90
5130;DHT22;2583;50.946;6.954;2023-08-06T07:39:16;16.60;99.90
5130;DHT22;2583;50.946;6.954;2023-08-06T07:41:43;16.70;99.90
5130;DHT22;2583;50.946;6.954;2023-08-06T07:44:12;16.90;99.90
5130;DHT22;2583;50.946;6.954;2023-08-06T07:46:39;16.90;99.90
5130;DHT22;2583;50.946;6.954;2023-08-06T07:49:06;17.00;99.90
5130;DHT22;2583;50.946;6.954;2023-08-06T07:51:32;17.10;99.90
5130;DHT22;2583;50.946;6.954;2023-08-06T07:53:59;17.20;99.90
5130;DHT22;2583;50.946;6.954;2023-08-06T07:56:26;17.30;99.90
5130;DHT22;2583;50.946;6.954;2023-08-06T07:58:53;17.40;99.90
5130;DHT22;2583;50.946;6.954;2023-08-06T08:01:19;17.40;99.90
5130;DHT22;2583;50.946;6.954;2023-08-06T08:03:46;17.50;99.90
5130;DHT22;2583;50.946;6.954;2023-08-06T08:06:13;17.40;99.90
5130;DHT22;2583;50.946;6.954;2023-08-06T08:08:40;17.40;99.90
5130;DHT22;2583;50.946;6.954;2023-08-06T08:11:07;17.40;99.90
5130;DHT22;2583;50.946;6.954;2023-08-06T08:13:34;17.40;99.90
5130;DHT22;2583;50.946;6.954;2023-08-06T08:16:01;17.30;99.90
5130;DHT22;2583;50.946;6.954;2023-08-06T08:18:28;17.40;99.90
5130;DHT22;2583;50.946;6.954;2023-08-06T08:20:56;17.40;99.90
5130;DHT22;2583;50.946;6.954;2023-08-06T08:23:23;17.50;99.90
5130;DHT22;2583;50.946;6.954;2023-08-06T08:25:49;17.60;99.90
5130;DHT22;2583;50.946;6.954;2023-08-06T08:28:16;17.70;99.90
5130;DHT22;2583;50.946;6.954;2023-08-06T08:30:43;17.80;99.90
5130;DHT22;2583;50.946;6.954;2023-08-06T08:33:10;18.00;99.90
5130;DHT22;2583;50.946;6.954;2023-08-06T08:35:37;17.90;99.90
5130;DHT22;2583;50.946;6.954;2023-08-06T08:38:04;18.00;99.90
5130;DHT22;2583;50.946;6.954;2023-08-06T08:40:33;18.00;99.90
5130;DHT22;2583;50.946;6.954;2023-08-06T08:43:05;18.00;99.90
5130;DHT22;2583;50.946;6.954;2023-08-06T08:45:34;17.80;99.90
5130;DHT22;2583;50.946;6.954;2023-08-06T08:48:01;17.90;99.90
5130;DHT22;2583;50.946;6.954;2023-08-06T08:50:28;17.90;99.90
5130;DHT22;2583;50.946;6.954;2023-08-06T08:52:56;18.00;99.90
5130;DHT22;2583;50.946;6.954;2023-08-06T08:55:23;18.10;99.90
5130;DHT22;2583;50.946;6.954;2023-08-06T08:57:50;18.10;99.90
5130;DHT22;2583;50.946;6.954;2023-08-06T09:00:17;18.20;99.90
5130;DHT22;2583;50.946;6.954;2023-08-06T09:02:44;18.30;99.90
5130;DHT22;2583;50.946;6.954;2023-08-06T09:05:13;18.40;99.90
5130;DHT22;2583;50.946;6.954;2023-08-06T09:07:47;18.40;99.90
5130;DHT22;2583;50.946;6.954;2023-08-06T09:10:16;18.40;99.90
5130;DHT22;2583;50.946;6.954;2023-08-06T09:12:48;18.40;99.90
5130;DHT22;2583;50.946;6.954;2023-08-06T09:15:17;18.20;99.90
5130;DHT22;2583;50.946;6.954;2023-08-06T09:17:44;18.10;99.90
5130;DHT22;2583;50.946;6.954;2023-08-06T09:20:14;18.10;99.90
5130;DHT22;2583;50.946;6.954;2023-08-06T09:22:41;18.10;99.90
5130;DHT22;2583;50.946;6.954;2023-08-06T09:25:08;18.00;99.90
5130;DHT22;2583;50.946;6.954;2023-08-06T09:27:40;18.00;99.90
5130;DHT22;2583;50.946;6.954;2023-08-06T09:30:07;18.00;99.90
5130;DHT22;2583;50.946;6.954;2023-08-06T09:32:47;18.00;99.90
5130;DHT22;2583;50.946;6.954;2023-08-06T09:35:18;17.90;99.90
5130;DHT22;2583;50.946;6.954;2023-08-06T09:37:45;17.80;99.90
5130;DHT22;2583;50.946;6.954;2023-08-06T09:40:24;17.70;99.90
5130;DHT22;2583;50.946;6.954;2023-08-06T09:42:52;17.70;99.90
5130;DHT22;2583;50.946;6.954;2023-08-06T09:45:19;17.50;99.90
5130;DHT22;2583;50.946;6.954;2023-08-06T09:47:45;17.50;99.90
5130;DHT22;2583;50.946;6.954;2023-08-06T09:50:17;17.70;99.90
5130;DHT22;2583;50.946;6.954;2023-08-06T09:52:45;17.70;99.90
5130;DHT22;2583;50.946;6.954;2023-08-06T09:55:13;17.80;99.90
5130;DHT22;2583;50.946;6.954;2023-08-06T09:57:43;17.90;99.90
5130;DHT22;2583;50.946;6.954;2023-08-06T10:00:11;17.90;99.90
5130;DHT22;2583;50.946;6.954;2023-08-06T10:02:39;18.00;99.90
5130;DHT22;2583;50.946;6.954;2023-08-06T10:05:09;18.20;99.90
5130;DHT22;2583;50.946;6.954;2023-08-06T10:07:36;18.30;99.90
5130;DHT22;2583;50.946;6.954;2023-08-06T10:10:06;18.20;99.90
5130;DHT22;2583;50.946;6.954;2023-08-06T10:12:38;17.90;99.90
5130;DHT22;2583;50.946;6.954;2023-08-06T10:15:11;17.50;99.90
5130;DHT22;2583;50.946;6.954;2023-08-06T10:17:40;17.10;99.90
5130;DHT22;2583;50.946;6.954;2023-08-06T10:20:17;16.70;99.90
5130;DHT22;2583;50.946;6.954;2023-08-06T10:22:45;16.40;99.90
5130;DHT22;2583;50.946;6.954;2023-08-06T10:25:16;16.20;99.90
5130;DHT22;2583;50.946;6.954;2023-08-06T10:30:31;15.80;99.90
5130;DHT22;2583;50.946;6.954;2023-08-06T10:33:00;15.70;99.90
5130;DHT22;2583;50.946;6.954;2023-08-06T10:35:47;15.60;99.90
5130;DHT22;2583;50.946;6.954;2023-08-06T10:38:19;15.60;99.90
5130;DHT22;2583;50.946;6.954;2023-08-06T10:41:02;15.50;99.90
5130;DHT22;2583;50.946;6.954;2023-08-06T10:43:32;15.50;99.90
5130;DHT22;2583;50.946;6.954;2023-08-06T10:46:02;15.40;99.90
5130;DHT22;2583;50.946;6.954;2023-08-06T10:48:35;15.30;99.90
5130;DHT22;2583;50.946;6.954;2023-08-06T10:51:04;15.20;99.90
5130;DHT22;2583;50.946;6.954;2023-08-06T10:53:31;15.10;99.90
5130;DHT22;2583;50.946;6.954;2023-08-06T10:56:01;15.00;99.90
5130;DHT22;2583;50.946;6.954;2023-08-06T10:58:34;14.90;99.90
5130;DHT22;2583;50.946;6.954;2023-08-06T11:01:01;14.90;99.90
5130;DHT22;2583;50.946;6.954;2023-08-06T11:03:28;14.80;99.90
5130;DHT22;2583;50.946;6.954;2023-08-06T11:05:55;14.80;99.90
5130;DHT22;2583;50.946;6.954;2023-08-06T11:08:27;14.90;99.90
5130;DHT22;2583;50.946;6.954;2023-08-06T11:10:54;14.90;99.90
5130;DHT22;2583;50.946;6.954;2023-08-06T11:13:29;14.90;99.90
5130;DHT22;2583;50.946;6.954;2023-08-06T11:15:57;14.70;99.90
5130;DHT22;2583;50.946;6.954;2023-08-06T11:18:24;14.70;99.90
5130;DHT22;2583;50.946;6.954;2023-08-06T11:20:51;14.70;99.90
5130;DHT22;2583;50.946;6.954;2023-08-06T11:23:18;14.70;99.90
5130;DHT22;2583;50.946;6.954;2023-08-06T11:25:45;14.80;99.90
5130;DHT22;2583;50.946;6.954;2023-08-06T11:28:12;14.80;99.90
5130;DHT22;2583;50.946;6.954;2023-08-06T11:30:40;14.80;99.90
5130;DHT22;2583;50.946;6.954;2023-08-06T11:33:07;14.70;99.90
5130;DHT22;2583;50.946;6.954;2023-08-06T11:35:36;14.80;99.90
5130;DHT22;2583;50.946;6.954;2023-08-06T11:38:03;15.00;99.90
5130;DHT22;2583;50.946;6.954;2023-08-06T11:40:32;15.10;99.90
5130;DHT22;2583;50.946;6.954;2023-08-06T11:42:59;15.20;99.90
5130;DHT22;2583;50.946;6.954;2023-08-06T11:45:25;15.30;99.90
5130;DHT22;2583;50.946;6.954;2023-08-06T11:47:53;15.40;99.90
5130;DHT22;2583;50.946;6.954;2023-08-06T11:50:24;15.30;99.90
5130;DHT22;2583;50.946;6.954;2023-08-06T11:52:57;15.40;99.90
5130;DHT22;2583;50.946;6.954;2023-08-06T11:55:25;15.40;99.90
5130;DHT22;2583;50.946;6.954;2023-08-06T11:57:52;15.50;99.90
5130;DHT22;2583;50.946;6.954;2023-08-06T12:00:19;15.50;99.90
5130;DHT22;2583;50.946;6.954;2023-08-06T12:02:49;15.60;99.90
5130;DHT22;2583;50.946;6.954;2023-08-06T12:05:18;15.50;99.90
5130;DHT22;2583;50.946;6.954;2023-08-06T12:07:48;15.60;99.90
5130;DHT22;2583;50.946;6.954;2023-08-06T12:10:16;15.60;99.90
5130;DHT22;2583;50.946;6.954;2023-08-06T12:12:43;15.80;99.90
5130;DHT22;2583;50.946;6.954;2023-08-06T12:15:10;15.90;99.90
5130;DHT22;2583;50.946;6.954;2023-08-06T12:17:38;16.00;99.90
5130;DHT22;2583;50.946;6.954;2023-08-06T12:20:06;16.10;99.90
5130;DHT22;2583;50.946;6.954;2023-08-06T12:22:34;16.30;99.90
5130;DHT22;2583;50.946;6.954;2023-08-06T12:25:03;16.40;99.90
5130;DHT22;2583;50.946;6.954;2023-08-06T12:27:30;16.40;99.90
5130;DHT22;2583;50.946;6.954;2023-08-06T12:29:57;16.40;99.90
5130;DHT22;2583;50.946;6.954;2023-08-06T12:32:24;16.40;99.90
5130;DHT22;2583;50.946;6.954;2023-08-06T12:34:50;16.30;99.90
5130;DHT22;2583;50.946;6.954;2023-08-06T12:37:19;16.20;99.90
5130;DHT22;2583;50.946;6.954;2023-08-06T12:39:46;16.20;99.90
5130;DHT22;2583;50.946;6.954;2023-08-06T12:42:13;16.10;99.90
5130;DHT22;2583;50.946;6.954;2023-08-06T12:44:40;16.10;99.90
5130;DHT22;2583;50.946;6.954;2023-08-06T12:47:07;16.10;99.90
5130;DHT22;2583;50.946;6.954;2023-08-06T12:49:34;15.90;99.90
5130;DHT22;2583;50.946;6.954;2023-08-06T12:52:02;15.80;99.90
5130;DHT22;2583;50.946;6.954;2023-08-06T12:54:28;15.90;99.90
5130;DHT22;2583;50.946;6.954;2023-08-06T12:56:55;16.10;99.90
5130;DHT22;2583;50.946;6.954;2023-08-06T12:59:22;16.10;99.90
5130;DHT22;2583;50.946;6.954;2023-08-06T13:01:49;16.10;99.90
5130;DHT22;2583;50.946;6.954;2023-08-06T13:04:16;16.30;99.90
5130;DHT22;2583;50.946;6.954;2023-08-06T13:06:48;16.30;99.90
5130;DHT22;2583;50.946;6.954;2023-08-06T13:09:16;16.20;99.90
5130;DHT22;2583;50.946;6.954;2023-08-06T13:11:42;16.20;99.90
5130;DHT22;2583;50.946;6.954;2023-08-06T13:14:13;16.40;99.90
5130;DHT22;2583;50.946;6.954;2023-08-06T13:16:42;16.50;99.90
5130;DHT22;2583;50.946;6.954;2023-08-06T13:19:09;16.30;99.90
5130;DHT22;2583;50.946;6.954;2023-08-06T13:24:12;16.20;99.90
5130;DHT22;2583;50.946;6.954;2023-08-06T13:26:39;16.30;99.90
5130;DHT22;2583;50.946;6.954;2023-08-06T13:29:06;16.30;99.90
5130;DHT22;2583;50.946;6.954;2023-08-06T13:31:33;16.30;99.90
5130;DHT22;2583;50.946;6.954;2023-08-06T13:34:00;16.30;99.90
5130;DHT22;2583;50.946;6.954;2023-08-06T13:36:27;16.30;99.90
5130;DHT22;2583;50.946;6.954;2023-08-06T13:38:55;16.30;99.90
5130;DHT22;2583;50.946;6.954;2023-08-06T13:41:22;16.10;99.90
5130;DHT22;2583;50.946;6.954;2023-08-06T13:43:49;15.90;99.90
5130;DHT22;2583;50.946;6.954;2023-08-06T13:46:18;15.70;99.90
5130;DHT22;2583;50.946;6.954;2023-08-06T13:48:48;15.50;99.90
5130;DHT22;2583;50.946;6.954;2023-08-06T13:51:18;15.40;99.90
5130;DHT22;2583;50.946;6.954;2023-08-06T13:53:45;15.30;99.90
5130;DHT22;2583;50.946;6.954;2023-08-06T13:56:12;15.30;99.90
5130;DHT22;2583;50.946;6.954;2023-08-06T13:58:41;15.50;99.90
5130;DHT22;2583;50.946;6.954;2023-08-06T14:01:10;15.50;99.90
5130;DHT22;2583;50.946;6.954;2023-08-06T14:03:37;15.70;99.90
5130;DHT22;2583;50.946;6.954;2023-08-06T14:06:04;15.60;99.90
5130;DHT22;2583;50.946;6.954;2023-08-06T14:08:31;15.60;99.90
5130;DHT22;2583;50.946;6.954;2023-08-06T14:10:58;15.70;99.90
5130;DHT22;2583;50.946;6.954;2023-08-06T14:13:25;15.90;99.90
5130;DHT22;2583;50.946;6.954;2023-08-06T14:15:52;15.90;99.90
5130;DHT22;2583;50.946;6.954;2023-08-06T14:18:19;15.90;99.90
5130;DHT22;2583;50.946;6.954;2023-08-06T14:20:46;15.80;99.90
5130;DHT22;2583;50.946;6.954;2023-08-06T14:23:12;15.80;99.90
5130;DHT22;2583;50.946;6.954;2023-08-06T14:25:39;15.80;99.90
5130;DHT22;2583;50.946;6.954;2023-08-06T14:28:06;15.90;99.90
5130;DHT22;2583;50.946;6.954;2023-08-06T14:30:34;15.90;99.90
5130;DHT22;2583;50.946;6.954;2023-08-06T14:33:02;15.90;99.90
5130;DHT22;2583;50.946;6.954;2023-08-06T14:35:46;15.90;99.90
5130;DHT22;2583;50.946;6.954;2023-08-06T14:38:13;15.90;99.90
5130;DHT22;2583;50.946;6.954;2023-08-06T14:40:40;15.70;99.90
5130;DHT22;2583;50.946;6.954;2023-08-06T14:43:07;15.70;99.90
5130;DHT22;2583;50.946;6.954;2023-08-06T14:45:38;15.70;99.90
5130;DHT22;2583;50.946;6.954;2023-08-06T14:48:05;15.80;99.90
5130;DHT22;2583;50.946;6.954;2023-08-06T14:50:32;15.90;99.90
5130;DHT22;2583;50.946;6.954;2023-08-06T14:52:59;15.90;99.90
5130;DHT22;2583;50.946;6.954;2023-08-06T14:55:31;15.90;99.90
5130;DHT22;2583;50.946;6.954;2023-08-06T14:58:01;16.00;99.90
5130;DHT22;2583;50.946;6.954;2023-08-06T15:00:28;16.00;99.90
5130;DHT22;2583;50.946;6.954;2023-08-06T15:02:55;16.10;99.90
5130;DHT22;2583;50.946;6.954;2023-08-06T15:05:22;16.30;99.90
5130;DHT22;2583;50.946;6.954;2023-08-06T15:07:49;16.30;99.90
5130;DHT22;2583;50.946;6.954;2023-08-06T15:10:15;16.30;99.90
5130;DHT22;2583;50.946;6.954;2023-08-06T15:12:45;16.30;99.90
5130;DHT22;2583;50.946;6.954;2023-08-06T15:15:12;16.20;99.90
5130;DHT22;2583;50.946;6.954;2023-08-06T15:17:39;16.20;99.90
5130;DHT22;2583;50.946;6.954;2023-08-06T15:20:06;16.30;99.90
5130;DHT22;2583;50.946;6.954;2023-08-06T15:22:33;16.40;99.90
5130;DHT22;2583;50.946;6.954;2023-08-06T15:25:00;16.40;99.90
5130;DHT22;2583;50.946;6.954;2023-08-06T15:27:28;16.40;99.90
5130;DHT22;2583;50.946;6.954;2023-08-06T15:29:55;16.30;99.90
5130;DHT22;2583;50.946;6.954;2023-08-06T15:32:22;16.30;99.90
5130;DHT22;2583;50.946;6.954;2023-08-06T15:34:50;16.30;99.90
5130;DHT22;2583;50.946;6.954;2023-08-06T15:37:17;16.30;99.90
5130;DHT22;2583;50.946;6.954;2023-08-06T15:39:45;16.10;99.90
5130;DHT22;2583;50.946;6.954;2023-08-06T15:42:12;16.10;99.90
5130;DHT22;2583;50.946;6.954;2023-08-06T15:44:39;16.10;99.90
5130;DHT22;2583;50.946;6.954;2023-08-06T15:47:06;16.10;99.90
5130;DHT22;2583;50.946;6.954;2023-08-06T15:49:33;16.00;99.90
5130;DHT22;2583;50.946;6.954;2023-08-06T15:52:00;16.00;99.90
5130;DHT22;2583;50.946;6.954;2023-08-06T15:54:26;16.00;99.90
5130;DHT22;2583;50.946;6.954;2023-08-06T15:56:53;16.00;99.90
5130;DHT22;2583;50.946;6.954;2023-08-06T15:59:31;15.90;99.90
5130;DHT22;2583;50.946;6.954;2023-08-06T16:01:59;15.70;99.90
5130;DHT22;2583;50.946;6.954;2023-08-06T16:04:31;15.50;99.90
5130;DHT22;2583;50.946;6.954;2023-08-06T16:06:58;15.20;99.90
5130;DHT22;2583;50.946;6.954;2023-08-06T16:09:25;15.10;99.90
5130;DHT22;2583;50.946;6.954;2023-08-06T16:11:53;15.00;99.90
5130;DHT22;2583;50.946;6.954;2023-08-06T16:14:20;14.90;99.90